createdAt,value
2022-11-29T00:01:10.611Z,99235.09
2022-11-29T00:04:26.671Z,99236.95
2022-11-29T00:08:04.264Z,99237.61
2022-11-29T00:12:01.289Z,99234.83
2022-11-29T00:15:37.533Z,99237.88
2022-11-29T00:19:14.185Z,99240.84
2022-11-29T00:23:10.889Z,99242.25
2022-11-29T00:26:29.605Z,99243.97
2022-11-29T00:30:07.988Z,99241.80
2022-11-29T00:33:45.226Z,99237.57
2022-11-29T00:37:22.649Z,99242.05
2022-11-29T00:41:00.376Z,99242.53
2022-11-29T00:44:38.007Z,99240.60
2022-11-29T00:48:15.838Z,99239.30
2022-11-29T00:51:53.398Z,99237.38
2022-11-29T00:55:31.266Z,99233.55
2022-11-29T00:59:08.879Z,99232.79
2022-11-29T01:02:46.710Z,99235.13
2022-11-29T01:06:24.302Z,99235.55
2022-11-29T01:10:02.105Z,99232.91
2022-11-29T01:13:40.806Z,99235.95
2022-11-29T01:17:38.338Z,99237.50
2022-11-29T01:21:14.477Z,99237.71
2022-11-29T01:24:49.685Z,99234.58
2022-11-29T01:28:27.763Z,99233.04
2022-11-29T01:32:04.954Z,99229.80
2022-11-29T01:35:54.375Z,99224.14
2022-11-29T01:39:29.488Z,99227.53
2022-11-29T01:43:16.979Z,99223.77
2022-11-29T01:46:53.727Z,99226.60
2022-11-29T01:50:29.798Z,99227.91
2022-11-29T01:54:29.254Z,99229.34
2022-11-29T01:57:45.474Z,99226.33
2022-11-29T02:01:23.536Z,99230.98
2022-11-29T02:05:02.538Z,99227.73
2022-11-29T02:08:41.849Z,99222.86
2022-11-29T02:12:19.901Z,99227.80
2022-11-29T02:16:20.361Z,99233.53
2022-11-29T02:20:06.242Z,99233.71
2022-11-29T02:23:53.362Z,99236.88
2022-11-29T02:28:27.229Z,99239.08
2022-11-29T02:32:30.498Z,99239.62
2022-11-29T02:36:56.418Z,99246.41
2022-11-29T02:40:00.779Z,99246.91
2022-11-29T02:44:30.210Z,99254.59
2022-11-29T02:48:27.205Z,99253.70
2022-11-29T02:52:08.049Z,99255.79
2022-11-29T02:55:56.177Z,99254.60
2022-11-29T02:59:34.149Z,99258.80
2022-11-29T03:03:21.563Z,99259.00
2022-11-29T03:07:11.632Z,99260.67
2022-11-29T03:10:57.383Z,99262.21
2022-11-29T03:15:02.580Z,99265.33
2022-11-29T03:19:18.176Z,99265.05
2022-11-29T03:23:33.475Z,99269.48
2022-11-29T03:27:16.505Z,99266.07
2022-11-29T03:31:30.365Z,99271.47
2022-11-29T03:35:08.453Z,99271.81
2022-11-29T03:38:46.070Z,99275.66
2022-11-29T03:42:37.676Z,99274.58
2022-11-29T03:46:22.295Z,99273.36
2022-11-29T03:50:11.396Z,99269.70
2022-11-29T03:53:54.379Z,99276.05
2022-11-29T03:57:38.754Z,99277.08
2022-11-29T04:01:32.621Z,99279.20
2022-11-29T04:05:48.434Z,99281.96
2022-11-29T04:09:41.704Z,99280.35
2022-11-29T04:13:51.052Z,99285.05
2022-11-29T04:17:41.405Z,99285.70
2022-11-29T04:21:35.344Z,99286.41
2022-11-29T04:25:22.510Z,99284.30
2022-11-29T04:29:32.871Z,99288.46
2022-11-29T04:33:45.192Z,99292.60
2022-11-29T04:37:41.781Z,99298.52
2022-11-29T04:41:35.426Z,99296.73
2022-11-29T04:45:35.599Z,99298.70
2022-11-29T04:49:19.849Z,99299.32
2022-11-29T04:53:24.240Z,99301.41
2022-11-29T04:56:49.538Z,99306.70
2022-11-29T05:00:25.244Z,99310.02
2022-11-29T05:04:10.713Z,99312.10
2022-11-29T05:08:13.809Z,99313.00
2022-11-29T05:12:13.946Z,99314.77
2022-11-29T05:16:15.694Z,99316.19
2022-11-29T05:20:09.579Z,99318.33
2022-11-29T05:24:04.267Z,99322.17
2022-11-29T05:27:51.412Z,99322.20
2022-11-29T05:31:32.689Z,99324.75
2022-11-29T05:35:31.118Z,99326.58
2022-11-29T05:39:21.016Z,99329.89
2022-11-29T05:43:47.034Z,99331.63
2022-11-29T05:46:54.056Z,99331.64
2022-11-29T05:50:37.435Z,99332.70
2022-11-29T05:54:31.056Z,99337.80
2022-11-29T05:58:30.110Z,99341.59
2022-11-29T06:02:42.034Z,99344.58
2022-11-29T06:05:55.139Z,99348.93
2022-11-29T06:10:13.942Z,99351.72
2022-11-29T06:14:09.202Z,99359.92
2022-11-29T06:18:32.653Z,99364.23
2022-11-29T06:22:21.012Z,99366.37
2022-11-29T06:26:18.960Z,99371.72
2022-11-29T06:30:09.366Z,99372.20
2022-11-29T06:34:11.400Z,99369.91
2022-11-29T06:37:53.121Z,99372.81
2022-11-29T06:41:02.430Z,99374.99
2022-11-29T06:44:38.009Z,99380.03
2022-11-29T06:48:27.875Z,99385.20
2022-11-29T06:52:21.812Z,99385.92
2022-11-29T06:56:08.084Z,99391.94
2022-11-29T07:00:02.011Z,99394.71
2022-11-29T07:04:03.063Z,99396.48
2022-11-29T07:07:39.542Z,99398.96
2022-11-29T07:11:16.509Z,99396.05
2022-11-29T07:14:54.017Z,99398.64
2022-11-29T07:18:52.320Z,99399.37
2022-11-29T07:23:31.707Z,99402.58
2022-11-29T07:26:19.989Z,99403.34
2022-11-29T07:30:15.385Z,99407.94
2022-11-29T07:34:23.558Z,99406.96
2022-11-29T07:37:34.989Z,99409.51
2022-11-29T07:41:37.986Z,99406.95
2022-11-29T07:45:24.203Z,99414.33
2022-11-29T07:49:18.265Z,99415.84
2022-11-29T07:52:56.730Z,99418.14
2022-11-29T07:56:16.466Z,99422.05
2022-11-29T07:59:52.273Z,99416.85
2022-11-29T08:03:30.039Z,99415.77
2022-11-29T08:07:07.668Z,99418.73
2022-11-29T08:10:45.897Z,99416.88
2022-11-29T08:14:23.265Z,99423.64
2022-11-29T08:18:02.345Z,99420.73
2022-11-29T08:21:57.586Z,99418.80
2022-11-29T08:25:16.253Z,99423.34
2022-11-29T08:28:53.972Z,99421.05
2022-11-29T08:32:51.877Z,99422.54
2022-11-29T08:36:28.255Z,99424.44
2022-11-29T08:39:47.025Z,99424.05
2022-11-29T08:43:24.727Z,99424.09
2022-11-29T08:47:21.089Z,99428.02
2022-11-29T08:50:56.610Z,99433.14
2022-11-29T08:54:34.582Z,99430.60
2022-11-29T08:58:30.583Z,99440.70
2022-11-29T09:02:08.256Z,99437.61
2022-11-29T09:05:26.933Z,99438.88
2022-11-29T09:09:05.595Z,99444.27
2022-11-29T09:12:44.310Z,99453.35
2022-11-29T09:16:23.270Z,99454.51
2022-11-29T09:19:58.380Z,99458.47
2022-11-29T09:23:37.110Z,99457.54
2022-11-29T09:27:32.498Z,99459.84
2022-11-29T09:30:51.428Z,99463.78
2022-11-29T09:34:29.147Z,99466.98
2022-11-29T09:38:06.839Z,99462.80
2022-11-29T09:41:53.651Z,99466.44
2022-11-29T09:45:37.534Z,99460.34
2022-11-29T09:49:53.460Z,99463.17
2022-11-29T09:53:26.576Z,99463.68
2022-11-29T09:57:10.353Z,99467.89
2022-11-29T10:00:50.203Z,99467.15
2022-11-29T10:04:30.908Z,99466.05
2022-11-29T10:08:19.556Z,99468.51
2022-11-29T10:12:37.084Z,99472.40
2022-11-29T10:16:20.783Z,99467.34
2022-11-29T10:20:17.740Z,99468.36
2022-11-29T10:23:59.836Z,99466.11
2022-11-29T10:27:39.842Z,99468.31
2022-11-29T10:31:42.607Z,99470.09
2022-11-29T10:34:52.698Z,99473.10
2022-11-29T10:38:31.628Z,99471.27
2022-11-29T10:42:39.373Z,99471.52
2022-11-29T10:46:35.441Z,99469.10
2022-11-29T10:50:21.053Z,99467.88
2022-11-29T11:04:00.266Z,99467.21
2022-11-29T11:07:03.719Z,99467.58
2022-11-29T11:10:38.831Z,99466.62
2022-11-29T11:14:03.671Z,99470.09
2022-11-29T11:17:42.248Z,99464.68
2022-11-29T11:21:20.588Z,99460.15
2022-11-29T11:25:27.911Z,99463.39
2022-11-29T11:28:59.447Z,99464.88
2022-11-29T11:32:29.989Z,99462.10
2022-11-29T11:36:07.248Z,99468.60
2022-11-29T11:39:44.050Z,99473.52
2022-11-29T11:43:21.931Z,99477.77
2022-11-29T11:46:59.621Z,99475.48
2022-11-29T11:50:51.955Z,99472.59
2022-11-29T11:54:52.251Z,99473.34
2022-11-29T11:58:09.790Z,99479.70
2022-11-29T12:02:36.524Z,99483.46
2022-11-29T12:05:23.429Z,99489.09
2022-11-29T12:09:09.883Z,99488.15
2022-11-29T12:23:21.845Z,99495.17
2022-11-29T12:26:06.581Z,99498.02
2022-11-29T12:30:00.557Z,99496.55
2022-11-29T12:33:40.876Z,99500.22
2022-11-29T12:37:22.385Z,99499.95
2022-11-29T12:41:41.086Z,99502.97
2022-11-29T12:44:58.514Z,99502.35
2022-11-29T12:48:48.930Z,99506.69
2022-11-29T12:52:51.381Z,99510.71
2022-11-29T12:56:39.563Z,99516.06
2022-11-29T13:00:16.636Z,99515.92
2022-11-29T13:04:19.382Z,99518.53
2022-11-29T13:08:03.944Z,99520.66
2022-11-29T13:11:55.646Z,99523.30
2022-11-29T13:16:08.788Z,99525.09
2022-11-29T13:19:18.584Z,99527.80
2022-11-29T13:23:09.074Z,99532.08
2022-11-29T13:26:45.242Z,99528.92
2022-11-29T13:30:40.661Z,99530.23
2022-11-29T13:34:18.252Z,99534.65
2022-11-29T13:38:11.510Z,99534.58
2022-11-29T13:42:18.783Z,99536.66
2022-11-29T13:45:39.242Z,99538.03
2022-11-29T13:49:55.406Z,99542.11
2022-11-29T13:53:48.550Z,99547.64
2022-11-29T13:57:25.078Z,99553.02
2022-11-29T14:01:22.758Z,99557.06
2022-11-29T14:09:28.898Z,99561.61
2022-11-29T14:19:10.751Z,99564.70
2022-11-29T14:22:03.098Z,99566.63
2022-11-29T14:24:37.115Z,99570.34
2022-11-29T14:27:56.650Z,99572.59
2022-11-29T14:30:52.470Z,99575.62
2022-11-29T14:33:55.498Z,99580.20
2022-11-29T14:42:48.625Z,99585.70
2022-11-29T14:45:29.779Z,99587.02
2022-11-29T14:47:58.494Z,99591.91
2022-11-29T14:50:33.218Z,99596.32
2022-11-29T14:53:02.251Z,99595.50
2022-11-29T14:55:36.059Z,99600.65
2022-11-29T14:58:15.207Z,99602.83
2022-11-29T15:01:20.739Z,99607.65
2022-11-29T15:03:50.024Z,99606.66
2022-11-29T15:06:25.796Z,99606.10
2022-11-29T15:08:55.938Z,99604.41
2022-11-29T15:11:36.639Z,99609.03
2022-11-29T15:14:15.409Z,99608.93
2022-11-29T15:16:52.995Z,99610.39
2022-11-29T15:20:04.395Z,99615.16
2022-11-29T15:22:41.517Z,99616.48
2022-11-29T15:25:13.386Z,99616.61
2022-11-29T15:28:08.676Z,99616.84
2022-11-29T15:30:42.426Z,99617.88
2022-11-29T15:33:24.325Z,99623.41
2022-11-29T15:36:03.855Z,99624.13
2022-11-29T15:38:42.981Z,99620.39
2022-11-29T15:41:26.145Z,99624.67
2022-11-29T15:44:22.269Z,99625.66
2022-11-29T15:46:50.218Z,99625.05
2022-11-29T15:49:28.546Z,99625.63
2022-11-29T15:52:07.717Z,99631.08
2022-11-29T15:54:42.201Z,99631.68
2022-11-29T15:57:13.234Z,99631.23
2022-11-29T15:59:51.493Z,99631.96
2022-11-29T16:02:31.762Z,99629.56
2022-11-29T16:05:39.191Z,99631.16
2022-11-29T16:08:17.628Z,99632.08
2022-11-29T16:10:52.983Z,99634.05
2022-11-29T16:13:38.237Z,99631.84
2022-11-29T16:16:15.578Z,99634.33
2022-11-29T16:18:46.515Z,99635.39
2022-11-29T16:21:32.142Z,99640.30
2022-11-29T16:24:12.941Z,99642.24
2022-11-29T16:26:44.770Z,99644.90
2022-11-29T16:29:27.379Z,99645.30
2022-11-29T16:31:55.898Z,99649.23
2022-11-29T16:34:26.159Z,99648.75
2022-11-29T16:37:01.388Z,99651.94
2022-11-29T16:39:30.072Z,99649.58
2022-11-29T16:42:15.978Z,99648.91
2022-11-29T16:44:47.229Z,99653.27
2022-11-29T16:47:21.627Z,99656.07
2022-11-29T16:50:01.893Z,99654.70
2022-11-29T16:52:32.045Z,99657.90
2022-11-29T16:55:00.254Z,99662.30
2022-11-29T16:57:29.041Z,99663.55
2022-11-29T16:59:57.169Z,99668.79
2022-11-29T17:02:29.175Z,99673.69
2022-11-29T17:04:58.261Z,99675.45
2022-11-29T17:07:29.723Z,99677.06
2022-11-29T17:09:59.022Z,99679.05
2022-11-29T17:12:26.935Z,99679.10
2022-11-29T17:14:54.766Z,99680.33
2022-11-29T17:17:22.661Z,99685.55
2022-11-29T17:19:50.565Z,99689.77
2022-11-29T17:22:18.389Z,99690.66
2022-11-29T17:24:48.353Z,99688.95
2022-11-29T17:27:16.615Z,99688.15
2022-11-29T17:29:44.450Z,99690.15
2022-11-29T17:32:12.294Z,99689.17
2022-11-29T17:34:40.257Z,99686.43
2022-11-29T17:37:08.216Z,99686.83
2022-11-29T17:39:36.076Z,99694.00
2022-11-29T17:42:03.925Z,99698.57
2022-11-29T17:44:34.092Z,99698.80
2022-11-29T17:47:01.974Z,99699.89
2022-11-29T17:49:29.915Z,99701.66
2022-11-29T17:51:57.726Z,99703.23
2022-11-29T17:54:25.590Z,99704.30
2022-11-29T17:56:53.409Z,99701.04
2022-11-29T17:59:21.278Z,99703.15
2022-11-29T18:01:49.279Z,99705.80
2022-11-29T18:04:17.338Z,99708.58
2022-11-29T18:06:49.881Z,99708.26
2022-11-29T18:09:19.356Z,99712.46
2022-11-29T18:11:49.753Z,99714.05
2022-11-29T18:14:23.516Z,99716.86
2022-11-29T18:16:51.909Z,99719.15
2022-11-29T18:19:22.179Z,99722.50
2022-11-29T18:21:50.834Z,99718.55
2022-11-29T18:24:18.984Z,99720.49
2022-11-29T18:26:47.441Z,99723.61
2022-11-29T18:29:15.424Z,99721.39
2022-11-29T18:31:46.016Z,99721.78
2022-11-29T18:34:15.070Z,99721.48
2022-11-29T18:36:47.941Z,99721.46
2022-11-29T18:39:21.135Z,99723.55
2022-11-29T18:41:50.306Z,99725.30
2022-11-29T18:44:21.608Z,99728.95
2022-11-29T18:46:49.880Z,99726.17
2022-11-29T18:49:18.570Z,99728.29
2022-11-29T18:51:47.914Z,99730.39
2022-11-29T18:54:18.809Z,99730.39
2022-11-29T18:56:49.523Z,99733.33
2022-11-29T18:59:17.951Z,99733.33
2022-11-29T19:01:48.573Z,99733.34
2022-11-29T19:04:19.965Z,99736.65
2022-11-29T19:06:48.599Z,99736.30
2022-11-29T19:09:21.267Z,99737.11
2022-11-29T19:11:50.680Z,99737.61
2022-11-29T19:14:19.641Z,99735.86
2022-11-29T19:16:49.785Z,99734.46
2022-11-29T19:19:18.972Z,99738.98
2022-11-29T19:21:47.181Z,99737.92
2022-11-29T19:24:17.657Z,99740.48
2022-11-29T19:26:47.420Z,99739.23
2022-11-29T19:29:16.149Z,99737.79
2022-11-29T19:31:44.517Z,99737.91
2022-11-29T19:34:12.547Z,99741.73
2022-11-29T19:36:45.265Z,99743.80
2022-11-29T19:39:16.766Z,99747.22
2022-11-29T19:41:46.971Z,99744.55
2022-11-29T19:44:15.117Z,99746.08
2022-11-29T19:46:48.796Z,99749.88
2022-11-29T19:49:17.289Z,99747.90
2022-11-29T19:51:45.297Z,99752.35
2022-11-29T19:54:13.188Z,99750.38
2022-11-29T19:56:41.731Z,99757.27
2022-11-29T19:59:09.623Z,99755.50
2022-11-29T20:01:41.384Z,99749.95
2022-11-29T20:04:11.656Z,99753.08
2022-11-29T20:06:40.136Z,99754.96
2022-11-29T20:09:08.153Z,99756.20
2022-11-29T20:11:35.996Z,99755.15
2022-11-29T20:14:05.827Z,99756.91
2022-11-29T20:16:37.915Z,99757.27
2022-11-29T20:19:11.046Z,99760.77
2022-11-29T20:21:48.266Z,99763.05
2022-11-29T20:24:17.789Z,99762.18
2022-11-29T20:26:47.722Z,99762.02
2022-11-29T20:29:16.544Z,99763.78
2022-11-29T20:31:50.282Z,99769.03
2022-11-29T20:34:20.306Z,99768.05
2022-11-29T20:37:13.185Z,99768.80
2022-11-29T20:39:59.527Z,99769.00
2022-11-29T20:42:37.366Z,99769.01
2022-11-29T20:45:08.536Z,99766.21
2022-11-29T20:48:03.166Z,99767.60
2022-11-29T20:50:32.280Z,99769.72
2022-11-29T20:53:17.953Z,99770.15
2022-11-29T20:55:48.163Z,99774.86
2022-11-29T20:58:18.298Z,99775.04
2022-11-29T21:00:46.579Z,99777.66
2022-11-29T21:03:15.862Z,99776.47
2022-11-29T21:05:44.452Z,99775.98
2022-11-29T21:08:13.876Z,99779.31
2022-11-29T21:10:41.773Z,99781.79
2022-11-29T21:13:14.130Z,99781.59
2022-11-29T21:15:42.963Z,99785.24
2022-11-29T21:18:26.571Z,99782.42
2022-11-29T21:21:03.653Z,99783.42
2022-11-29T21:24:03.109Z,99786.55
2022-11-29T21:26:42.492Z,99790.54
2022-11-29T21:29:10.350Z,99796.80
2022-11-29T21:31:38.512Z,99800.64
2022-11-29T21:34:06.408Z,99801.53
2022-11-29T21:36:35.787Z,99803.10
2022-11-29T21:39:10.788Z,99803.48
2022-11-29T21:41:38.992Z,99805.42
2022-11-29T21:44:07.913Z,99804.73
2022-11-29T21:46:36.318Z,99800.57
2022-11-29T21:49:04.983Z,99800.41
2022-11-29T21:51:33.649Z,99798.33
2022-11-29T21:54:01.748Z,99794.89
2022-11-29T21:56:29.617Z,99794.75
2022-11-29T21:58:57.550Z,99800.69
2022-11-29T22:01:29.549Z,99797.23
2022-11-29T22:03:57.606Z,99796.03
2022-11-29T22:06:27.024Z,99802.01
2022-11-29T22:08:54.929Z,99803.60
2022-11-29T22:11:36.538Z,99798.39
2022-11-29T22:14:18.458Z,99798.55
2022-11-29T22:16:49.608Z,99796.30
2022-11-29T22:19:21.448Z,99801.34
2022-11-29T22:21:52.085Z,99802.39
2022-11-29T22:24:22.383Z,99804.48
2022-11-29T22:26:51.499Z,99802.41
2022-11-29T22:29:20.233Z,99801.73
2022-11-29T22:31:50.288Z,99802.61
2022-11-29T22:34:18.515Z,99802.48
2022-11-29T22:36:46.482Z,99801.12
2022-11-29T22:39:14.689Z,99804.77
2022-11-29T22:41:42.688Z,99806.54
2022-11-29T22:44:10.596Z,99806.91
2022-11-29T22:46:40.612Z,99807.27
2022-11-29T22:49:08.843Z,99808.67
2022-11-29T22:51:38.087Z,99806.77
2022-11-29T22:54:08.142Z,99808.01
2022-11-29T22:56:39.831Z,99811.02
2022-11-29T22:59:08.183Z,99812.11
2022-11-29T23:01:38.392Z,99809.01
2022-11-29T23:04:08.520Z,99811.09
2022-11-29T23:06:38.733Z,99810.06
2022-11-29T23:09:16.604Z,99810.07
2022-11-29T23:11:45.861Z,99812.36
2022-11-29T23:14:14.024Z,99811.32
2022-11-29T23:16:41.918Z,99812.70
2022-11-29T23:19:10.153Z,99815.15
2022-11-29T23:21:40.190Z,99819.67
2022-11-29T23:24:08.220Z,99817.26
2022-11-29T23:26:40.021Z,99820.55
2022-11-29T23:29:11.120Z,99820.56
2022-11-29T23:31:39.894Z,99821.80
2022-11-29T23:34:08.790Z,99823.52
2022-11-29T23:36:36.662Z,99821.94
2022-11-29T23:39:06.622Z,99820.86
2022-11-29T23:41:37.944Z,99819.14
2022-11-29T23:44:06.539Z,99818.98
2022-11-29T23:46:35.380Z,99818.61
2022-11-29T23:49:04.032Z,99816.35
2022-11-29T23:51:31.828Z,99816.69
2022-11-29T23:53:59.679Z,99820.34
2022-11-29T23:56:27.576Z,99814.80
2022-11-29T23:58:55.500Z,99818.45
